createdAt,value
2023-03-29T00:01:35.124Z,-0.32
2023-03-29T00:04:39.337Z,-0.26
2023-03-29T00:07:43.470Z,-0.32
2023-03-29T00:10:49.561Z,-0.31
2023-03-29T00:13:52.872Z,-0.33
2023-03-29T00:16:55.106Z,-0.30
2023-03-29T00:19:57.190Z,-0.35
2023-03-29T00:22:59.123Z,-0.34
2023-03-29T00:26:01.461Z,-0.32
2023-03-29T00:29:04.701Z,-0.37
2023-03-29T00:32:06.632Z,-0.28
2023-03-29T00:35:09.715Z,-0.19
2023-03-29T00:38:11.983Z,-0.26
2023-03-29T00:41:14.722Z,-0.41
2023-03-29T00:44:53.466Z,-0.32
2023-03-29T00:48:00.591Z,-0.29
2023-03-29T00:51:07.549Z,-0.21
2023-03-29T00:54:16.766Z,-0.45
2023-03-29T00:57:21.206Z,-0.64
2023-03-29T01:00:28.332Z,-0.43
2023-03-29T01:03:37.026Z,-0.37
2023-03-29T01:06:41.019Z,-0.47
2023-03-29T01:09:47.132Z,-0.50
2023-03-29T01:12:52.602Z,-0.41
2023-03-29T01:15:57.684Z,-0.64
2023-03-29T01:19:01.111Z,-0.61
2023-03-29T01:22:12.243Z,-0.51
2023-03-29T01:25:21.510Z,-0.30
2023-03-29T01:28:27.165Z,-0.26
2023-03-29T01:31:33.244Z,-0.34
2023-03-29T01:34:41.491Z,-0.13
2023-03-29T01:37:49.149Z,-0.25
2023-03-29T01:40:51.053Z,-0.10
2023-03-29T01:43:59.169Z,-0.04
2023-03-29T01:47:10.001Z,0.04
2023-03-29T01:50:16.039Z,0.05
2023-03-29T01:53:25.421Z,0.01
2023-03-29T01:56:29.991Z,0.01
2023-03-29T01:59:36.939Z,-0.03
2023-03-29T02:02:41.579Z,0.06
2023-03-29T02:05:46.311Z,0.12
2023-03-29T02:08:48.573Z,0.09
2023-03-29T02:11:53.896Z,0.08
2023-03-29T02:14:59.439Z,0.24
2023-03-29T02:18:01.727Z,0.21
2023-03-29T02:21:04.570Z,0.17
2023-03-29T02:24:10.561Z,0.20
2023-03-29T02:27:12.933Z,0.27
2023-03-29T02:30:19.012Z,0.32
2023-03-29T02:33:25.501Z,0.36
2023-03-29T02:36:32.271Z,0.41
2023-03-29T02:39:35.450Z,0.28
2023-03-29T02:42:38.184Z,0.25
2023-03-29T02:45:45.774Z,0.37
2023-03-29T02:48:50.338Z,0.38
2023-03-29T02:51:58.938Z,0.45
2023-03-29T02:55:02.606Z,0.49
2023-03-29T02:58:04.592Z,0.46
2023-03-29T03:01:09.526Z,0.45
2023-03-29T03:04:13.440Z,0.45
2023-03-29T03:07:15.693Z,0.38
2023-03-29T03:10:20.801Z,0.33
2023-03-29T03:13:22.628Z,0.27
2023-03-29T03:16:25.938Z,0.35
2023-03-29T03:19:27.915Z,0.41
2023-03-29T03:22:30.966Z,0.48
2023-03-29T03:25:34.827Z,0.52
2023-03-29T03:28:37.215Z,0.48
2023-03-29T03:31:40.551Z,0.47
2023-03-29T03:34:42.805Z,0.49
2023-03-29T03:37:44.821Z,0.51
2023-03-29T03:40:54.130Z,0.52
2023-03-29T03:43:56.201Z,0.54
2023-03-29T03:46:59.442Z,0.55
2023-03-29T03:50:02.353Z,0.55
2023-03-29T03:53:05.030Z,0.51
2023-03-29T03:56:08.408Z,0.54
2023-03-29T03:59:10.269Z,0.57
2023-03-29T04:02:13.649Z,0.69
2023-03-29T04:05:16.395Z,0.64
2023-03-29T04:08:18.793Z,0.66
2023-03-29T04:11:24.589Z,0.66
2023-03-29T04:14:26.738Z,0.62
2023-03-29T04:17:30.385Z,0.65
2023-03-29T04:20:32.484Z,0.66
2023-03-29T04:23:35.665Z,0.64
2023-03-29T04:26:37.835Z,0.63
2023-03-29T04:29:40.052Z,0.69
2023-03-29T04:32:44.902Z,0.50
2023-03-29T04:35:47.048Z,0.51
2023-03-29T04:38:48.927Z,0.57
2023-03-29T04:41:50.822Z,0.62
2023-03-29T04:44:53.090Z,0.66
2023-03-29T04:47:59.909Z,0.70
2023-03-29T04:51:04.590Z,0.63
2023-03-29T04:54:06.497Z,0.68
2023-03-29T04:57:09.079Z,0.74
2023-03-29T05:00:12.240Z,0.74
2023-03-29T05:03:16.797Z,0.71
2023-03-29T05:06:18.609Z,0.72
2023-03-29T05:09:20.473Z,0.76
2023-03-29T05:12:23.745Z,0.82
2023-03-29T05:15:26.842Z,0.87
2023-03-29T05:18:30.690Z,0.84
2023-03-29T05:21:32.741Z,0.76
2023-03-29T05:24:34.747Z,0.70
2023-03-29T05:27:36.828Z,0.82
2023-03-29T05:30:40.090Z,0.85
2023-03-29T05:33:43.421Z,0.87
2023-03-29T05:36:45.876Z,0.85
2023-03-29T05:39:48.448Z,1.00
2023-03-29T05:42:51.619Z,1.05
2023-03-29T05:45:56.460Z,1.01
2023-03-29T05:48:59.764Z,0.99
2023-03-29T05:52:01.897Z,1.01
2023-03-29T05:55:04.041Z,1.02
2023-03-29T05:58:06.249Z,1.03
2023-03-29T06:01:12.476Z,1.05
2023-03-29T06:04:16.443Z,1.14
2023-03-29T06:07:19.832Z,1.11
2023-03-29T06:10:25.942Z,1.18
2023-03-29T06:13:28.044Z,1.07
2023-03-29T06:16:32.019Z,1.03
2023-03-29T06:19:35.344Z,1.09
2023-03-29T06:22:37.682Z,1.18
2023-03-29T06:25:39.513Z,1.24
2023-03-29T06:28:41.472Z,1.27
2023-03-29T06:31:43.296Z,1.31
2023-03-29T06:34:46.993Z,1.28
2023-03-29T06:37:48.859Z,1.35
2023-03-29T06:40:51.428Z,1.35
2023-03-29T06:43:53.786Z,1.43
2023-03-29T06:46:56.038Z,1.44
2023-03-29T06:49:59.252Z,1.50
2023-03-29T06:53:01.499Z,1.57
2023-03-29T06:56:05.507Z,1.66
2023-03-29T06:59:07.319Z,1.70
2023-03-29T07:02:10.081Z,1.71
2023-03-29T07:05:14.446Z,1.74
2023-03-29T07:08:17.231Z,1.71
2023-03-29T07:11:20.820Z,1.71
2023-03-29T07:14:23.143Z,1.51
2023-03-29T07:17:25.531Z,1.62
2023-03-29T07:20:29.329Z,1.69
2023-03-29T07:23:31.092Z,1.70
2023-03-29T07:26:33.229Z,1.69
2023-03-29T07:29:35.079Z,1.76
2023-03-29T07:32:37.158Z,1.71
2023-03-29T07:35:40.595Z,1.77
2023-03-29T07:38:42.489Z,1.91
2023-03-29T07:41:44.719Z,1.92
2023-03-29T07:44:47.108Z,1.94
2023-03-29T07:47:48.951Z,1.94
2023-03-29T07:50:52.270Z,2.04
2023-03-29T07:53:54.110Z,2.09
2023-03-29T07:56:57.854Z,1.99
2023-03-29T07:59:59.954Z,2.15
2023-03-29T08:03:01.962Z,2.08
2023-03-29T08:06:05.775Z,2.12
2023-03-29T08:09:07.833Z,2.10
2023-03-29T08:12:09.978Z,2.07
2023-03-29T08:15:12.443Z,2.14
2023-03-29T08:18:14.681Z,2.23
2023-03-29T08:21:18.558Z,2.27
2023-03-29T08:24:21.100Z,2.33
2023-03-29T08:27:23.036Z,2.44
2023-03-29T08:30:25.428Z,2.55
2023-03-29T08:33:27.629Z,2.59
2023-03-29T08:36:31.197Z,2.68
2023-03-29T08:39:33.488Z,2.72
2023-03-29T08:43:03.474Z,2.73
2023-03-29T08:46:16.063Z,2.80
2023-03-29T08:49:20.378Z,2.77
2023-03-29T08:52:33.820Z,2.96
2023-03-29T08:55:39.248Z,2.99
2023-03-29T08:58:43.805Z,3.07
2023-03-29T09:01:52.156Z,3.10
2023-03-29T09:04:58.762Z,3.13
2023-03-29T09:08:02.731Z,2.98
2023-03-29T09:11:29.532Z,2.92
2023-03-29T09:14:47.387Z,2.87
2023-03-29T09:18:04.228Z,2.88
2023-03-29T09:21:16.897Z,2.84
2023-03-29T09:24:41.068Z,2.65
2023-03-29T09:27:49.161Z,2.73
2023-03-29T09:30:58.716Z,2.77
2023-03-29T09:34:08.545Z,2.80
2023-03-29T09:37:15.358Z,2.83
2023-03-29T09:40:22.633Z,3.00
2023-03-29T09:43:31.097Z,3.03
2023-03-29T09:46:39.184Z,3.05
2023-03-29T09:49:46.294Z,3.12
2023-03-29T09:52:50.012Z,3.18
2023-03-29T09:55:53.410Z,3.28
2023-03-29T09:58:55.882Z,3.29
2023-03-29T10:02:07.145Z,3.39
2023-03-29T10:05:16.829Z,3.46
2023-03-29T10:08:22.357Z,3.62
2023-03-29T10:11:31.481Z,3.89
2023-03-29T10:14:36.024Z,3.83
2023-03-29T10:17:40.873Z,3.99
2023-03-29T10:20:43.150Z,3.88
2023-03-29T10:23:44.933Z,3.84
2023-03-29T10:26:51.148Z,3.85
2023-03-29T10:29:54.373Z,3.94
2023-03-29T10:32:58.378Z,3.95
2023-03-29T10:36:03.204Z,3.90
2023-03-29T10:39:06.167Z,3.92
2023-03-29T10:42:13.577Z,3.87
2023-03-29T10:45:25.786Z,3.89
2023-03-29T10:48:30.022Z,3.93
2023-03-29T10:51:32.901Z,3.95
2023-03-29T10:54:35.686Z,4.05
2023-03-29T10:57:50.940Z,4.11
2023-03-29T11:00:56.462Z,4.18
2023-03-29T11:04:10.841Z,4.29
2023-03-29T11:07:28.907Z,4.32
2023-03-29T11:10:39.008Z,4.37
2023-03-29T11:13:49.394Z,4.58
2023-03-29T11:17:03.639Z,4.60
2023-03-29T11:20:19.472Z,4.73
2023-03-29T11:23:33.329Z,4.74
2023-03-29T11:26:43.136Z,4.83
2023-03-29T11:30:00.780Z,4.98
2023-03-29T11:33:14.399Z,5.18
2023-03-29T11:36:21.339Z,5.16
2023-03-29T11:39:35.417Z,5.37
2023-03-29T11:42:43.581Z,5.54
2023-03-29T11:45:58.293Z,5.57
2023-03-29T11:49:06.706Z,5.63
2023-03-29T11:52:14.474Z,5.77
2023-03-29T11:55:19.591Z,6.07
2023-03-29T11:58:31.203Z,6.04
2023-03-29T12:01:42.386Z,6.18
2023-03-29T12:04:49.375Z,6.28
2023-03-29T12:08:01.320Z,6.37
2023-03-29T12:11:08.391Z,6.36
2023-03-29T12:14:16.317Z,6.37
2023-03-29T12:17:24.696Z,6.48
2023-03-29T12:20:31.798Z,6.58
2023-03-29T12:23:34.021Z,6.67
2023-03-29T12:26:51.382Z,6.76
2023-03-29T12:30:22.668Z,6.83
2023-03-29T12:33:43.010Z,7.10
2023-03-29T12:37:13.588Z,7.34
2023-03-29T12:40:17.505Z,7.39
2023-03-29T12:43:25.099Z,7.45
2023-03-29T12:46:31.771Z,7.35
2023-03-29T12:49:39.118Z,7.34
2023-03-29T12:52:42.365Z,7.34
2023-03-29T12:55:54.460Z,7.36
2023-03-29T12:59:06.359Z,7.37
2023-03-29T13:02:33.612Z,7.36
2023-03-29T13:05:36.924Z,7.44
2023-03-29T13:08:41.748Z,7.56
2023-03-29T13:11:44.692Z,7.72
2023-03-29T13:14:50.944Z,7.70
2023-03-29T13:17:59.624Z,7.73
2023-03-29T13:21:11.849Z,7.71
2023-03-29T13:24:31.503Z,8.02
2023-03-29T13:27:44.208Z,8.50
2023-03-29T13:30:58.812Z,8.78
2023-03-29T13:34:10.484Z,9.09
2023-03-29T13:37:33.949Z,9.15
2023-03-29T13:40:45.513Z,9.09
2023-03-29T13:43:53.644Z,9.08
2023-03-29T13:47:03.833Z,9.03
2023-03-29T13:50:16.506Z,8.95
2023-03-29T13:53:27.615Z,8.98
2023-03-29T13:56:34.921Z,9.02
2023-03-29T13:59:44.909Z,9.16
2023-03-29T14:02:52.048Z,9.19
2023-03-29T14:05:58.742Z,9.23
2023-03-29T14:09:05.127Z,9.17
2023-03-29T14:12:11.542Z,9.07
2023-03-29T14:15:22.968Z,9.03
2023-03-29T14:18:27.330Z,9.08
2023-03-29T14:21:29.735Z,9.04
2023-03-29T14:24:41.047Z,9.25
2023-03-29T14:27:43.423Z,9.17
2023-03-29T14:30:46.374Z,9.03
2023-03-29T14:33:52.835Z,9.06
2023-03-29T14:36:55.332Z,9.17
2023-03-29T14:39:59.140Z,9.30
2023-03-29T14:43:05.843Z,9.32
2023-03-29T14:46:08.601Z,9.25
2023-03-29T14:49:15.056Z,9.32
2023-03-29T14:52:19.504Z,9.36
2023-03-29T14:55:24.267Z,9.31
2023-03-29T14:58:28.927Z,9.26
2023-03-29T15:01:31.625Z,9.33
2023-03-29T15:04:35.342Z,9.48
2023-03-29T15:07:37.596Z,9.76
2023-03-29T15:10:43.014Z,9.77
2023-03-29T15:13:47.577Z,9.81
2023-03-29T15:16:51.525Z,9.91
2023-03-29T15:19:59.027Z,9.90
2023-03-29T15:23:03.702Z,9.87
2023-03-29T15:26:14.948Z,9.94
2023-03-29T15:29:17.953Z,9.99
2023-03-29T15:32:22.027Z,10.01
2023-03-29T15:35:25.636Z,10.12
2023-03-29T15:38:40.468Z,10.18
2023-03-29T15:41:49.542Z,10.25
2023-03-29T15:44:53.741Z,10.23
2023-03-29T15:47:56.936Z,10.34
2023-03-29T15:51:01.518Z,10.53
2023-03-29T15:54:05.123Z,10.56
2023-03-29T15:57:13.572Z,10.56
2023-03-29T16:00:19.686Z,10.58
2023-03-29T16:03:22.124Z,10.55
2023-03-29T16:06:25.771Z,10.50
2023-03-29T16:09:27.587Z,10.52
2023-03-29T16:12:31.355Z,10.48
2023-03-29T16:15:34.304Z,10.54
2023-03-29T16:18:39.514Z,10.62
2023-03-29T16:21:42.728Z,10.62
2023-03-29T16:24:45.052Z,10.57
2023-03-29T16:27:49.056Z,10.58
2023-03-29T16:30:51.505Z,10.55
2023-03-29T16:33:53.658Z,10.51
2023-03-29T16:36:56.264Z,10.49
2023-03-29T16:39:58.993Z,10.53
2023-03-29T16:43:05.553Z,10.46
2023-03-29T16:46:09.314Z,10.43
2023-03-29T16:49:13.297Z,10.34
2023-03-29T16:52:16.007Z,10.38
2023-03-29T16:55:18.248Z,10.33
2023-03-29T16:58:21.502Z,10.27
2023-03-29T17:01:23.488Z,10.20
2023-03-29T17:04:25.399Z,10.10
2023-03-29T17:07:28.762Z,10.07
2023-03-29T17:10:32.080Z,10.06
2023-03-29T17:13:36.014Z,9.96
2023-03-29T17:16:38.471Z,9.90
2023-03-29T17:19:40.752Z,9.92
2023-03-29T17:22:44.012Z,9.94
2023-03-29T17:25:49.246Z,9.93
2023-03-29T17:28:52.802Z,9.88
2023-03-29T17:31:55.687Z,9.92
2023-03-29T17:34:57.983Z,9.74
2023-03-29T17:38:01.745Z,9.52
2023-03-29T17:41:04.747Z,9.30
2023-03-29T17:44:08.043Z,9.28
2023-03-29T17:47:11.074Z,9.25
2023-03-29T17:50:15.478Z,9.23
2023-03-29T17:53:21.057Z,9.26
2023-03-29T17:56:24.393Z,9.20
2023-03-29T17:59:30.998Z,9.06
2023-03-29T18:02:34.672Z,8.95
2023-03-29T18:05:37.648Z,8.89
2023-03-29T18:08:40.712Z,8.80
2023-03-29T18:11:42.869Z,8.75
2023-03-29T18:14:51.886Z,8.68
2023-03-29T18:17:55.692Z,8.58
2023-03-29T18:20:58.442Z,8.65
2023-03-29T18:24:01.519Z,8.70
2023-03-29T18:27:04.841Z,8.72
2023-03-29T18:30:16.275Z,8.82
2023-03-29T18:33:20.021Z,8.81
2023-03-29T18:36:24.914Z,8.90
2023-03-29T18:39:27.714Z,8.95
2023-03-29T18:42:31.060Z,8.96
2023-03-29T18:45:35.150Z,8.99
2023-03-29T18:48:37.601Z,8.95
2023-03-29T18:51:40.494Z,8.96
2023-03-29T18:54:43.834Z,8.89
2023-03-29T18:57:47.252Z,8.91
2023-03-29T19:00:51.916Z,8.93
2023-03-29T19:03:54.697Z,8.97
2023-03-29T19:06:57.750Z,8.88
2023-03-29T19:09:59.991Z,8.88
2023-03-29T19:13:04.105Z,8.91
2023-03-29T19:16:09.751Z,8.85
2023-03-29T19:19:12.821Z,8.88
2023-03-29T19:22:18.802Z,8.86
2023-03-29T19:25:23.332Z,8.94
2023-03-29T19:28:27.561Z,8.92
2023-03-29T19:31:33.057Z,8.95
2023-03-29T19:34:38.535Z,8.98
2023-03-29T19:37:42.948Z,8.87
2023-03-29T19:40:46.318Z,8.87
2023-03-29T19:43:48.641Z,8.83
2023-03-29T19:46:52.958Z,8.82
2023-03-29T19:49:58.502Z,8.83
2023-03-29T19:53:03.096Z,8.90
2023-03-29T19:56:06.154Z,8.83
2023-03-29T19:59:08.938Z,8.87
2023-03-29T20:02:14.580Z,8.82
2023-03-29T20:05:17.026Z,8.85
2023-03-29T20:08:21.054Z,8.81
2023-03-29T20:11:23.119Z,8.81
2023-03-29T20:14:25.178Z,8.88
2023-03-29T20:17:28.534Z,8.92
2023-03-29T20:20:31.197Z,8.96
2023-03-29T20:23:33.404Z,8.98
2023-03-29T20:26:35.592Z,8.91
2023-03-29T20:29:40.847Z,9.07
2023-03-29T20:32:45.208Z,9.00
2023-03-29T20:35:48.863Z,9.03
2023-03-29T20:38:51.019Z,9.02
2023-03-29T20:41:53.037Z,9.03
2023-03-29T20:44:55.666Z,8.95
2023-03-29T20:48:02.142Z,8.89
2023-03-29T20:51:04.483Z,8.91
2023-03-29T20:54:06.399Z,8.93
2023-03-29T20:57:10.774Z,8.96
2023-03-29T21:00:14.867Z,9.00
2023-03-29T21:03:18.404Z,8.98
2023-03-29T21:06:22.261Z,9.08
2023-03-29T21:09:24.448Z,9.01
2023-03-29T21:12:26.701Z,9.05
2023-03-29T21:15:29.321Z,9.08
2023-03-29T21:18:32.592Z,8.91
2023-03-29T21:21:35.959Z,8.88
2023-03-29T21:24:37.755Z,8.97
2023-03-29T21:27:39.616Z,8.90
2023-03-29T21:30:41.665Z,8.95
2023-03-29T21:33:45.037Z,8.89
2023-03-29T21:36:47.148Z,8.86
2023-03-29T21:39:49.260Z,8.83
2023-03-29T21:42:51.634Z,8.81
2023-03-29T21:45:54.760Z,8.90
2023-03-29T21:48:58.330Z,8.85
2023-03-29T21:52:01.773Z,8.83
2023-03-29T21:55:04.371Z,8.82
2023-03-29T21:58:08.734Z,8.82
2023-03-29T22:01:13.240Z,8.89
2023-03-29T22:04:25.826Z,8.81
2023-03-29T22:07:36.840Z,8.83
2023-03-29T22:10:39.672Z,8.82
2023-03-29T22:13:42.490Z,8.85
2023-03-29T22:16:44.349Z,8.83
2023-03-29T22:19:48.265Z,8.81
2023-03-29T22:22:51.429Z,8.81
2023-03-29T22:25:53.936Z,8.78
2023-03-29T22:28:57.890Z,8.78
2023-03-29T22:31:59.937Z,8.76
2023-03-29T22:35:03.714Z,8.72
2023-03-29T22:38:07.020Z,8.70
2023-03-29T22:41:09.398Z,8.71
2023-03-29T22:44:12.417Z,8.70
2023-03-29T22:47:14.599Z,8.72
2023-03-29T22:50:18.203Z,8.58
2023-03-29T22:53:20.042Z,8.49
2023-03-29T22:56:22.721Z,8.51
2023-03-29T22:59:24.805Z,8.65
2023-03-29T23:02:27.596Z,8.67
2023-03-29T23:05:32.628Z,8.75
2023-03-29T23:08:35.100Z,8.95
2023-03-29T23:11:37.396Z,8.88
2023-03-29T23:14:39.623Z,8.85
2023-03-29T23:17:43.402Z,8.86
2023-03-29T23:20:47.933Z,8.87
2023-03-29T23:23:50.154Z,8.85
2023-03-29T23:26:54.468Z,8.86
2023-03-29T23:29:56.655Z,8.86
2023-03-29T23:32:59.236Z,8.91
2023-03-29T23:36:04.640Z,8.85
2023-03-29T23:39:07.025Z,8.75
2023-03-29T23:42:09.231Z,8.82
2023-03-29T23:45:13.132Z,8.83
2023-03-29T23:48:15.036Z,8.92
2023-03-29T23:51:19.004Z,9.00
2023-03-29T23:54:22.091Z,9.07
2023-03-29T23:57:24.306Z,9.11
